createdAt,value
2019-03-31T00:01:53.010Z,16.90
2019-03-31T00:04:22.931Z,16.37
2019-03-31T00:06:52.702Z,15.73
2019-03-31T00:09:22.954Z,17.93
2019-03-31T00:11:52.943Z,18.17
2019-03-31T00:14:23.049Z,17.17
2019-03-31T00:16:52.964Z,18.00
2019-03-31T00:19:22.746Z,18.83
2019-03-31T00:21:52.548Z,16.70
2019-03-31T00:24:22.324Z,17.03
2019-03-31T00:26:52.154Z,15.80
2019-03-31T00:29:22.091Z,17.20
2019-03-31T00:31:51.933Z,18.47
2019-03-31T00:34:21.691Z,18.23
2019-03-31T00:36:51.576Z,15.40
2019-03-31T00:39:21.673Z,14.33
2019-03-31T00:41:51.473Z,14.77
2019-03-31T00:44:21.238Z,15.67
2019-03-31T00:46:51.042Z,17.23
2019-03-31T00:49:20.951Z,16.67
2019-03-31T00:51:50.960Z,15.73
2019-03-31T00:54:20.782Z,19.40
2019-03-31T00:56:50.584Z,18.27
2019-03-31T00:59:20.397Z,16.10
2019-03-31T01:02:00.380Z,17.77
2019-03-31T01:04:32.196Z,17.73
2019-03-31T01:07:02.398Z,15.67
2019-03-31T01:09:34.336Z,19.17
2019-03-31T01:12:05.633Z,16.77
2019-03-31T01:14:36.011Z,18.73
2019-03-31T01:17:11.068Z,19.30
2019-03-31T01:19:40.965Z,17.83
2019-03-31T01:22:10.773Z,18.27
2019-03-31T01:24:40.566Z,19.10
2019-03-31T01:27:11.033Z,17.97
2019-03-31T01:29:41.230Z,20.13
2019-03-31T01:32:11.401Z,17.97
2019-03-31T01:34:41.165Z,18.43
2019-03-31T01:37:11.403Z,19.93
2019-03-31T01:39:41.188Z,18.90
2019-03-31T01:42:11.107Z,20.87
2019-03-31T01:44:40.997Z,21.30
2019-03-31T01:47:11.890Z,17.90
2019-03-31T01:49:41.670Z,18.17
2019-03-31T01:52:11.546Z,18.77
2019-03-31T01:54:41.374Z,16.37
2019-03-31T01:57:11.179Z,17.47
2019-03-31T01:59:41.050Z,18.50
2019-03-31T02:02:14.765Z,18.27
2019-03-31T02:04:44.628Z,16.80
2019-03-31T02:07:14.528Z,18.40
2019-03-31T02:09:44.413Z,20.27
2019-03-31T02:12:14.214Z,15.63
2019-03-31T02:14:44.072Z,17.70
2019-03-31T02:17:14.034Z,17.73
2019-03-31T02:19:43.848Z,16.97
2019-03-31T02:22:13.649Z,16.33
2019-03-31T02:24:43.530Z,17.17
2019-03-31T02:27:13.455Z,16.17
2019-03-31T02:29:43.233Z,15.70
2019-03-31T02:32:23.336Z,19.83
2019-03-31T02:34:44.838Z,17.30
2019-03-31T02:37:14.743Z,19.10
2019-03-31T02:39:44.628Z,17.43
2019-03-31T02:42:14.525Z,17.63
2019-03-31T02:44:44.493Z,19.00
2019-03-31T02:47:14.463Z,16.73
2019-03-31T02:49:44.244Z,17.00
2019-03-31T02:52:14.135Z,17.37
2019-03-31T02:54:44.511Z,17.87
2019-03-31T02:57:14.846Z,19.23
2019-03-31T02:59:45.959Z,16.03
2019-03-31T03:02:16.696Z,18.70
2019-03-31T03:04:48.436Z,17.57
2019-03-31T03:07:18.666Z,17.33
2019-03-31T03:09:50.892Z,19.13
2019-03-31T03:12:22.434Z,17.10
2019-03-31T03:14:53.721Z,16.93
2019-03-31T03:17:23.540Z,18.83
2019-03-31T03:19:53.598Z,19.47
2019-03-31T03:22:23.446Z,17.33
2019-03-31T03:24:53.352Z,18.57
2019-03-31T03:27:23.150Z,16.87
2019-03-31T03:29:53.215Z,18.50
2019-03-31T03:32:23.148Z,18.60
2019-03-31T03:34:52.962Z,18.97
2019-03-31T03:37:22.768Z,22.93
2019-03-31T03:39:52.656Z,19.77
2019-03-31T03:42:22.444Z,20.17
2019-03-31T03:44:52.238Z,19.53
2019-03-31T03:47:22.168Z,18.27
2019-03-31T03:49:52.134Z,17.97
2019-03-31T03:52:22.062Z,17.40
2019-03-31T03:54:51.872Z,20.50
2019-03-31T03:57:21.871Z,20.53
2019-03-31T03:59:51.691Z,20.27
2019-03-31T04:02:21.674Z,18.90
2019-03-31T04:04:51.679Z,19.33
2019-03-31T04:07:21.462Z,22.53
2019-03-31T04:09:51.240Z,21.13
2019-03-31T04:12:21.153Z,19.93
2019-03-31T04:14:50.968Z,22.00
2019-03-31T04:17:20.766Z,20.20
2019-03-31T04:19:50.635Z,22.50
2019-03-31T04:22:20.563Z,20.87
2019-03-31T04:24:50.462Z,17.50
2019-03-31T04:27:20.257Z,20.63
2019-03-31T04:29:50.038Z,18.83
2019-03-31T04:32:19.909Z,22.33
2019-03-31T04:34:49.694Z,17.23
2019-03-31T04:37:19.532Z,19.87
2019-03-31T04:39:49.322Z,18.93
2019-03-31T04:42:19.231Z,20.20
2019-03-31T04:44:49.110Z,21.43
2019-03-31T04:47:18.917Z,18.63
2019-03-31T04:49:48.704Z,19.57
2019-03-31T04:52:18.505Z,22.20
2019-03-31T04:54:48.425Z,19.93
2019-03-31T04:57:18.216Z,17.47
2019-03-31T04:59:48.013Z,16.53
2019-03-31T05:02:17.815Z,19.87
2019-03-31T05:04:47.682Z,20.27
2019-03-31T05:07:17.556Z,19.10
2019-03-31T05:09:47.461Z,18.87
2019-03-31T05:12:17.361Z,14.93
2019-03-31T05:14:47.360Z,14.87
2019-03-31T05:17:17.214Z,14.20
2019-03-31T05:19:47.094Z,16.33
2019-03-31T05:22:17.107Z,14.80
2019-03-31T05:24:46.995Z,13.33
2019-03-31T05:27:16.779Z,15.40
2019-03-31T05:29:46.619Z,15.73
2019-03-31T05:32:16.405Z,17.43
2019-03-31T05:34:46.476Z,17.53
2019-03-31T05:40:00.636Z,18.63
2019-03-31T05:42:30.556Z,16.37
2019-03-31T05:45:00.659Z,18.60
2019-03-31T05:47:30.434Z,19.60
2019-03-31T05:50:00.400Z,20.00
2019-03-31T05:52:30.561Z,18.07
2019-03-31T05:55:00.495Z,18.27
2019-03-31T05:57:30.423Z,18.07
2019-03-31T06:00:00.535Z,18.50
2019-03-31T06:02:30.389Z,18.13
2019-03-31T06:05:00.484Z,19.57
2019-03-31T06:07:30.283Z,17.53
2019-03-31T06:10:02.395Z,19.00
2019-03-31T06:12:32.286Z,17.43
2019-03-31T06:15:02.287Z,16.90
2019-03-31T06:17:32.160Z,18.70
2019-03-31T06:20:02.068Z,19.87
2019-03-31T06:22:32.159Z,18.27
2019-03-31T06:25:02.078Z,19.80
2019-03-31T06:27:31.970Z,21.00
2019-03-31T06:30:02.105Z,18.47
2019-03-31T06:32:32.106Z,17.87
2019-03-31T06:35:02.072Z,20.07
2019-03-31T06:37:31.833Z,17.17
2019-03-31T06:40:01.850Z,21.27
2019-03-31T06:42:31.659Z,19.33
2019-03-31T06:45:01.479Z,18.40
2019-03-31T06:47:31.296Z,19.10
2019-03-31T06:50:01.224Z,18.77
2019-03-31T06:52:31.228Z,17.80
2019-03-31T06:55:01.140Z,16.90
2019-03-31T06:57:30.917Z,16.27
2019-03-31T07:00:00.944Z,16.40
2019-03-31T07:02:30.872Z,14.77
2019-03-31T07:05:01.837Z,15.73
2019-03-31T07:07:31.840Z,15.37
2019-03-31T07:10:01.684Z,16.40
2019-03-31T07:12:31.682Z,16.00
2019-03-31T07:15:01.682Z,16.60
2019-03-31T07:17:31.640Z,16.00
2019-03-31T07:20:01.626Z,15.10
2019-03-31T07:22:31.597Z,16.97
2019-03-31T07:25:01.575Z,15.73
2019-03-31T07:27:31.658Z,16.20
2019-03-31T07:30:01.492Z,16.42
2019-03-31T07:32:31.376Z,16.65
2019-03-31T07:35:01.268Z,18.00
2019-03-31T07:37:31.067Z,17.35
2019-03-31T07:40:01.606Z,17.27
2019-03-31T07:42:31.613Z,17.25
2019-03-31T07:45:01.896Z,16.52
2019-03-31T07:47:32.137Z,17.77
2019-03-31T07:50:02.266Z,16.55
2019-03-31T07:52:32.060Z,16.48
2019-03-31T07:55:01.881Z,15.93
2019-03-31T07:57:31.754Z,16.50
2019-03-31T08:00:01.801Z,16.60
2019-03-31T08:02:31.562Z,17.65
2019-03-31T08:05:01.428Z,17.77
2019-03-31T08:07:31.409Z,16.80
2019-03-31T08:10:01.330Z,17.23
2019-03-31T08:12:31.237Z,18.00
2019-03-31T08:15:01.183Z,17.42
2019-03-31T08:17:31.269Z,19.17
2019-03-31T08:20:01.082Z,19.67
2019-03-31T08:22:30.899Z,18.75
2019-03-31T08:25:00.905Z,18.20
2019-03-31T08:27:30.905Z,18.75
2019-03-31T08:30:01.436Z,19.32
2019-03-31T08:32:31.407Z,18.67
2019-03-31T08:35:01.195Z,18.57
2019-03-31T08:37:31.182Z,17.73
2019-03-31T08:40:01.173Z,18.80
2019-03-31T08:42:31.070Z,18.48
2019-03-31T08:45:00.870Z,18.52
2019-03-31T08:47:30.810Z,18.27
2019-03-31T08:50:02.379Z,18.50
2019-03-31T08:52:32.164Z,17.57
2019-03-31T08:55:02.162Z,18.80
2019-03-31T08:57:31.980Z,17.77
2019-03-31T09:00:01.834Z,18.70
2019-03-31T09:02:34.433Z,18.25
2019-03-31T09:05:05.029Z,18.17
2019-03-31T09:07:34.906Z,18.45
2019-03-31T09:10:05.512Z,18.15
2019-03-31T09:12:35.336Z,19.05
2019-03-31T09:15:05.982Z,18.17
2019-03-31T09:17:35.771Z,17.40
2019-03-31T09:20:07.043Z,18.77
2019-03-31T09:22:36.840Z,17.20
2019-03-31T09:25:08.612Z,17.02
2019-03-31T09:27:38.798Z,17.87
2019-03-31T09:30:10.454Z,18.02
2019-03-31T09:32:40.229Z,18.40
2019-03-31T09:35:11.255Z,18.55
2019-03-31T09:37:41.053Z,19.37
2019-03-31T09:40:12.126Z,18.05
2019-03-31T09:42:41.905Z,18.98
2019-03-31T09:45:12.559Z,18.37
2019-03-31T09:47:42.381Z,19.17
2019-03-31T09:50:17.023Z,18.32
2019-03-31T09:52:45.291Z,23.55
2019-03-31T09:55:15.418Z,19.30
2019-03-31T09:57:45.224Z,18.32
2019-03-31T10:00:15.738Z,19.92
2019-03-31T10:02:45.523Z,19.77
2019-03-31T10:05:15.599Z,18.70
2019-03-31T10:07:46.945Z,19.20
2019-03-31T10:10:38.377Z,19.00
2019-03-31T10:13:08.351Z,20.75
2019-03-31T10:15:38.271Z,18.92
2019-03-31T10:18:08.053Z,20.17
2019-03-31T10:20:37.910Z,21.12
2019-03-31T10:23:07.713Z,22.35
2019-03-31T10:25:37.591Z,23.80
2019-03-31T10:28:07.925Z,23.27
2019-03-31T10:30:38.706Z,19.87
2019-03-31T10:33:08.991Z,22.82
2019-03-31T10:35:39.233Z,23.57
2019-03-31T10:38:09.023Z,22.48
2019-03-31T10:40:38.923Z,22.20
2019-03-31T10:43:08.725Z,22.52
2019-03-31T10:45:38.699Z,19.40
2019-03-31T10:48:19.753Z,23.45
2019-03-31T10:50:40.149Z,21.97
2019-03-31T10:53:10.133Z,21.73
2019-03-31T10:55:39.950Z,20.25
2019-03-31T10:58:09.873Z,18.55
2019-03-31T11:00:40.147Z,21.15
2019-03-31T11:03:10.245Z,19.57
2019-03-31T11:05:40.190Z,20.45
2019-03-31T11:08:10.103Z,18.00
2019-03-31T11:10:40.018Z,19.82
2019-03-31T11:13:09.903Z,21.85
2019-03-31T11:15:39.938Z,18.85
2019-03-31T11:18:09.733Z,19.27
2019-03-31T11:20:39.672Z,18.42
2019-03-31T11:23:20.160Z,17.77
2019-03-31T11:25:50.191Z,17.48
2019-03-31T11:28:20.075Z,16.37
2019-03-31T11:30:49.891Z,16.97
2019-03-31T11:33:19.910Z,13.75
2019-03-31T11:35:49.751Z,17.52
2019-03-31T11:38:19.556Z,17.77
2019-03-31T11:40:49.409Z,16.85
2019-03-31T11:43:19.225Z,15.18
2019-03-31T11:45:49.122Z,16.40
2019-03-31T11:48:19.048Z,16.90
2019-03-31T11:50:49.172Z,15.80
2019-03-31T11:53:18.963Z,17.62
2019-03-31T11:55:48.798Z,17.42
2019-03-31T11:58:18.590Z,15.88
2019-03-31T12:00:54.069Z,14.23
2019-03-31T12:03:24.050Z,13.65
2019-03-31T12:05:53.976Z,13.10
2019-03-31T12:08:23.751Z,15.83
2019-03-31T12:10:53.762Z,13.35
2019-03-31T12:13:23.547Z,15.45
2019-03-31T12:15:53.355Z,15.85
2019-03-31T12:18:23.334Z,15.88
2019-03-31T12:20:53.152Z,15.28
2019-03-31T12:23:23.056Z,15.25
2019-03-31T12:25:53.084Z,13.98
2019-03-31T12:28:23.078Z,13.35
2019-03-31T12:30:53.083Z,14.47
2019-03-31T12:33:22.948Z,13.70
2019-03-31T12:35:52.772Z,13.98
2019-03-31T12:38:22.540Z,14.25
2019-03-31T12:40:52.412Z,12.33
2019-03-31T12:43:22.241Z,13.85
2019-03-31T12:45:52.129Z,13.43
2019-03-31T12:48:22.048Z,13.18
2019-03-31T12:50:51.930Z,15.00
2019-03-31T12:53:21.759Z,11.50
2019-03-31T12:55:59.970Z,13.45
2019-03-31T12:58:23.101Z,13.80
2019-03-31T13:00:53.326Z,12.90
2019-03-31T13:03:23.152Z,13.55
2019-03-31T13:05:53.044Z,13.35
2019-03-31T13:08:23.222Z,13.15
2019-03-31T13:10:53.130Z,14.60
2019-03-31T13:13:22.954Z,14.30
2019-03-31T13:15:52.746Z,11.57
2019-03-31T13:18:22.861Z,10.85
2019-03-31T13:20:52.955Z,13.38
2019-03-31T13:23:22.791Z,11.10
2019-03-31T13:25:52.615Z,11.10
2019-03-31T13:28:22.412Z,11.15
2019-03-31T13:30:52.201Z,12.82
2019-03-31T13:33:22.109Z,10.30
2019-03-31T13:35:53.365Z,12.98
2019-03-31T13:38:23.375Z,9.90
2019-03-31T13:40:53.254Z,8.73
2019-03-31T13:43:23.269Z,8.83
2019-03-31T13:45:53.153Z,8.40
2019-03-31T13:48:23.073Z,7.12
2019-03-31T13:50:52.945Z,8.08
2019-03-31T13:53:22.756Z,7.30
2019-03-31T13:55:52.540Z,7.25
2019-03-31T13:58:23.424Z,7.22
2019-03-31T14:00:57.067Z,6.30
2019-03-31T14:03:25.350Z,7.17
2019-03-31T14:05:55.164Z,6.92
2019-03-31T14:08:26.269Z,6.72
2019-03-31T14:10:56.605Z,4.30
2019-03-31T14:13:26.483Z,5.80
2019-03-31T14:15:56.246Z,5.42
2019-03-31T14:18:26.167Z,6.10
2019-03-31T14:20:56.044Z,5.65
2019-03-31T14:23:25.943Z,5.87
2019-03-31T14:25:55.813Z,5.30
2019-03-31T14:28:25.607Z,5.10
2019-03-31T14:30:55.913Z,5.42
2019-03-31T14:33:25.794Z,5.08
2019-03-31T14:35:55.570Z,5.12
2019-03-31T14:38:39.119Z,5.92
2019-03-31T14:40:57.209Z,5.15
2019-03-31T14:43:28.181Z,4.37
2019-03-31T14:45:58.169Z,4.75
2019-03-31T14:48:27.949Z,6.70
2019-03-31T14:50:57.816Z,5.47
2019-03-31T14:53:27.741Z,5.30
2019-03-31T14:55:57.720Z,4.60
2019-03-31T14:58:27.608Z,5.23
2019-03-31T15:00:57.408Z,4.57
2019-03-31T15:03:27.399Z,4.73
2019-03-31T15:05:57.302Z,4.47
2019-03-31T15:08:27.121Z,4.03
2019-03-31T15:10:57.000Z,4.00
2019-03-31T15:13:26.904Z,4.60
2019-03-31T15:15:56.760Z,3.87
2019-03-31T15:18:26.566Z,4.65
2019-03-31T15:20:56.563Z,4.08
2019-03-31T15:23:29.589Z,4.72
2019-03-31T15:25:57.883Z,4.62
2019-03-31T15:28:27.784Z,4.53
2019-03-31T15:30:57.676Z,4.80
2019-03-31T15:33:27.689Z,4.45
2019-03-31T15:35:57.570Z,4.53
2019-03-31T15:38:27.477Z,4.15
2019-03-31T15:40:57.260Z,4.97
2019-03-31T15:43:27.064Z,4.92
2019-03-31T15:45:57.044Z,4.40
2019-03-31T15:48:26.856Z,4.37
2019-03-31T15:50:56.850Z,4.22
2019-03-31T15:53:26.761Z,4.33
2019-03-31T15:55:56.552Z,4.08
2019-03-31T15:58:26.373Z,4.53
2019-03-31T16:00:56.263Z,4.33
2019-03-31T16:03:26.168Z,4.00
2019-03-31T16:05:56.140Z,4.47
2019-03-31T16:08:25.400Z,4.47
2019-03-31T16:10:55.087Z,4.67
2019-03-31T16:13:24.371Z,4.30
2019-03-31T16:15:53.692Z,5.03
2019-03-31T16:18:23.214Z,4.33
2019-03-31T16:20:52.440Z,4.10
2019-03-31T16:23:22.022Z,4.25
2019-03-31T16:25:55.192Z,4.17
2019-03-31T16:28:24.454Z,4.47
2019-03-31T16:30:53.793Z,4.17
2019-03-31T16:33:21.851Z,6.00
2019-03-31T16:35:51.116Z,4.13
2019-03-31T16:38:20.375Z,3.87
2019-03-31T16:40:49.919Z,3.87
2019-03-31T16:43:19.204Z,5.53
2019-03-31T16:45:48.456Z,5.10
2019-03-31T16:48:17.766Z,4.70
2019-03-31T16:50:46.999Z,3.67
2019-03-31T16:53:16.268Z,3.77
2019-03-31T16:55:45.541Z,3.70
2019-03-31T16:58:14.799Z,3.90
2019-03-31T17:00:44.075Z,3.70
2019-03-31T17:03:13.299Z,4.23
2019-03-31T17:05:42.563Z,3.80
2019-03-31T17:08:11.799Z,3.60
2019-03-31T17:10:41.052Z,3.83
2019-03-31T17:13:10.272Z,3.60
2019-03-31T17:15:39.535Z,5.80
2019-03-31T17:18:08.774Z,6.20
2019-03-31T17:20:38.124Z,4.93
2019-03-31T17:23:07.373Z,4.77
2019-03-31T17:25:36.649Z,4.93
2019-03-31T17:28:05.861Z,4.90
2019-03-31T17:30:35.124Z,4.63
2019-03-31T17:33:04.357Z,4.93
2019-03-31T17:35:33.751Z,4.87
2019-03-31T17:38:02.979Z,5.27
2019-03-31T17:40:32.262Z,5.13
2019-03-31T17:43:01.857Z,5.17
2019-03-31T17:45:31.154Z,5.43
2019-03-31T17:48:00.630Z,5.90
2019-03-31T17:50:30.034Z,7.17
2019-03-31T17:52:59.590Z,6.37
2019-03-31T17:55:28.859Z,6.80
2019-03-31T17:57:58.496Z,7.10
2019-03-31T18:00:28.177Z,7.23
2019-03-31T18:02:57.420Z,9.33
2019-03-31T18:05:26.687Z,8.07
2019-03-31T18:07:55.912Z,7.60
2019-03-31T18:10:25.178Z,9.10
2019-03-31T18:12:54.404Z,9.37
2019-03-31T18:15:23.684Z,9.30
2019-03-31T18:17:52.907Z,9.63
2019-03-31T18:20:22.194Z,10.73
2019-03-31T18:22:51.434Z,11.37
2019-03-31T18:25:20.691Z,12.27
2019-03-31T18:27:50.066Z,11.10
2019-03-31T18:30:19.539Z,12.27
2019-03-31T18:32:48.776Z,10.43
2019-03-31T18:35:18.135Z,10.97
2019-03-31T18:37:47.347Z,9.20
2019-03-31T18:40:16.624Z,9.97
2019-03-31T18:42:45.977Z,10.17
2019-03-31T18:45:15.246Z,13.53
2019-03-31T18:47:44.518Z,11.20
2019-03-31T18:50:13.772Z,11.33
2019-03-31T18:52:43.025Z,10.57
2019-03-31T18:55:33.884Z,12.70
2019-03-31T18:58:21.012Z,13.33
2019-03-31T19:01:21.317Z,12.37
2019-03-31T19:04:08.254Z,14.40
2019-03-31T19:06:46.491Z,12.40
2019-03-31T19:09:37.065Z,12.07
2019-03-31T19:12:25.261Z,13.23
2019-03-31T19:15:19.470Z,12.67
2019-03-31T19:17:54.977Z,13.60
2019-03-31T19:21:10.581Z,17.20
2019-03-31T19:24:05.832Z,16.87
2019-03-31T19:26:53.257Z,15.57
2019-03-31T19:29:41.453Z,15.40
2019-03-31T19:32:25.593Z,18.33
2019-03-31T19:35:28.897Z,17.73
2019-03-31T19:38:15.701Z,19.47
2019-03-31T19:41:04.317Z,20.73
2019-03-31T19:43:58.616Z,19.50
2019-03-31T19:46:52.182Z,20.30
2019-03-31T19:49:45.932Z,21.47
2019-03-31T19:52:37.015Z,21.77
2019-03-31T19:55:17.508Z,22.07
2019-03-31T19:58:14.681Z,23.00
2019-03-31T20:01:04.668Z,23.77
2019-03-31T20:04:01.491Z,22.63
2019-03-31T20:06:57.138Z,24.47
2019-03-31T20:09:54.181Z,25.20
2019-03-31T20:12:44.688Z,23.87
2019-03-31T20:15:31.807Z,26.43
2019-03-31T20:18:18.647Z,25.10
2019-03-31T20:21:06.104Z,25.53
2019-03-31T20:23:46.992Z,27.07
2019-03-31T20:26:38.346Z,26.30
2019-03-31T20:29:17.112Z,26.77
2019-03-31T20:32:02.057Z,26.87
2019-03-31T20:34:58.819Z,25.80
2019-03-31T20:37:59.159Z,25.63
2019-03-31T20:40:43.616Z,26.73
2019-03-31T20:43:37.982Z,27.27
2019-03-31T20:46:07.223Z,27.47
2019-03-31T20:48:36.552Z,27.23
2019-03-31T20:51:06.308Z,30.17
2019-03-31T20:53:35.575Z,26.23
2019-03-31T20:56:05.110Z,29.13
2019-03-31T20:58:34.383Z,28.90
2019-03-31T21:01:03.756Z,31.03
2019-03-31T21:03:33.020Z,30.33
2019-03-31T21:06:02.258Z,29.43
2019-03-31T21:08:31.524Z,31.00
2019-03-31T21:11:00.756Z,30.03
2019-03-31T21:13:30.022Z,35.37
2019-03-31T21:15:59.316Z,31.30
2019-03-31T21:18:28.576Z,32.93
2019-03-31T21:20:57.809Z,31.23
2019-03-31T21:23:27.092Z,34.87
2019-03-31T21:25:56.350Z,32.03
2019-03-31T21:28:25.671Z,33.23
2019-03-31T21:30:54.917Z,34.00
2019-03-31T21:33:24.171Z,34.33
2019-03-31T21:35:53.444Z,37.47
2019-03-31T21:38:22.673Z,35.87
2019-03-31T21:40:52.198Z,35.70
2019-03-31T21:43:21.611Z,35.73
2019-03-31T21:45:51.081Z,36.77
2019-03-31T21:48:20.317Z,36.10
2019-03-31T21:50:49.591Z,38.13
2019-03-31T21:53:18.839Z,35.83
2019-03-31T21:55:48.109Z,36.87
2019-03-31T21:58:17.386Z,37.53
2019-03-31T22:00:50.649Z,39.03
2019-03-31T22:03:20.199Z,39.73
2019-03-31T22:05:49.469Z,40.87
2019-03-31T22:08:18.782Z,40.50
2019-03-31T22:10:48.718Z,40.77
2019-03-31T22:13:17.960Z,40.90
2019-03-31T22:15:47.223Z,41.10
2019-03-31T22:18:16.621Z,39.87
2019-03-31T22:20:47.466Z,40.93
2019-03-31T22:23:16.812Z,38.70
2019-03-31T22:25:46.069Z,41.23
2019-03-31T22:28:15.304Z,43.13
2019-03-31T22:30:44.556Z,39.63
2019-03-31T22:33:13.797Z,42.00
2019-03-31T22:35:45.722Z,42.77
2019-03-31T22:38:14.969Z,40.73
2019-03-31T22:40:44.238Z,41.97
2019-03-31T22:43:13.522Z,43.43
2019-03-31T22:45:42.882Z,41.80
2019-03-31T22:48:12.230Z,43.63
2019-03-31T22:50:41.538Z,42.63
2019-03-31T22:53:10.802Z,42.07
2019-03-31T22:55:40.141Z,42.93
2019-03-31T22:58:09.389Z,42.10
2019-03-31T23:00:38.676Z,41.57
2019-03-31T23:03:07.939Z,46.13
2019-03-31T23:05:37.209Z,40.67
2019-03-31T23:08:06.445Z,41.50
2019-03-31T23:10:36.404Z,41.57
2019-03-31T23:13:05.645Z,43.70
2019-03-31T23:15:35.221Z,42.20
2019-03-31T23:18:04.505Z,39.97
2019-03-31T23:20:34.369Z,40.00
2019-03-31T23:23:03.647Z,40.00
2019-03-31T23:25:32.904Z,37.87
2019-03-31T23:28:02.178Z,40.13
2019-03-31T23:30:31.469Z,38.23
2019-03-31T23:33:00.731Z,42.77
2019-03-31T23:35:30.051Z,40.97
2019-03-31T23:37:59.323Z,41.50
2019-03-31T23:40:28.715Z,38.83
2019-03-31T23:42:57.941Z,40.97
2019-03-31T23:45:27.198Z,42.67
2019-03-31T23:47:56.466Z,41.13
2019-03-31T23:50:25.702Z,41.10
2019-03-31T23:52:54.970Z,41.73
2019-03-31T23:55:24.205Z,39.53
2019-03-31T23:57:53.473Z,38.70
